sensor_id;sensor_type;location;lat;lon;timestamp;P1;durP1;ratioP1;P2;durP2;ratioP2
38252;SDS011;24785;52.372;20.672;2022-08-11T00:02:14;4.97;;;1.92;;
38252;SDS011;24785;52.372;20.672;2022-08-11T00:12:22;5.50;;;2.20;;
38252;SDS011;24785;52.372;20.672;2022-08-11T00:22:23;2.47;;;1.42;;
38252;SDS011;24785;52.372;20.672;2022-08-11T00:32:25;4.70;;;2.20;;
38252;SDS011;24785;52.372;20.672;2022-08-11T00:53:23;3.78;;;2.20;;
38252;SDS011;24785;52.372;20.672;2022-08-11T01:14:13;5.05;;;1.63;;
38252;SDS011;24785;52.372;20.672;2022-08-11T01:24:50;6.30;;;1.70;;
38252;SDS011;24785;52.372;20.672;2022-08-11T01:46:20;12.80;;;3.80;;
38252;SDS011;24785;52.372;20.672;2022-08-11T02:07:03;3.50;;;1.65;;
38252;SDS011;24785;52.372;20.672;2022-08-11T02:17:18;3.08;;;1.80;;
38252;SDS011;24785;52.372;20.672;2022-08-11T02:27:22;6.10;;;2.25;;
38252;SDS011;24785;52.372;20.672;2022-08-11T03:08:58;6.80;;;1.90;;
38252;SDS011;24785;52.372;20.672;2022-08-11T03:39:58;4.47;;;2.03;;
38252;SDS011;24785;52.372;20.672;2022-08-11T03:50:53;9.38;;;2.15;;
38252;SDS011;24785;52.372;20.672;2022-08-11T04:01:07;4.97;;;2.17;;
38252;SDS011;24785;52.372;20.672;2022-08-11T04:31:35;6.63;;;2.55;;
38252;SDS011;24785;52.372;20.672;2022-08-11T04:52:58;6.82;;;3.15;;
38252;SDS011;24785;52.372;20.672;2022-08-11T05:03:45;6.50;;;2.38;;
38252;SDS011;24785;52.372;20.672;2022-08-11T05:13:50;9.35;;;2.65;;
38252;SDS011;24785;52.372;20.672;2022-08-11T05:24:22;9.05;;;2.70;;
38252;SDS011;24785;52.372;20.672;2022-08-11T05:34:50;7.38;;;2.72;;
38252;SDS011;24785;52.372;20.672;2022-08-11T05:44:56;5.45;;;2.55;;
38252;SDS011;24785;52.372;20.672;2022-08-11T05:55:20;9.02;;;2.80;;
38252;SDS011;24785;52.372;20.672;2022-08-11T06:05:41;5.45;;;2.60;;
38252;SDS011;24785;52.372;20.672;2022-08-11T06:15:46;5.75;;;2.25;;
38252;SDS011;24785;52.372;20.672;2022-08-11T06:25:51;8.88;;;2.60;;
38252;SDS011;24785;52.372;20.672;2022-08-11T06:35:59;6.57;;;2.35;;
38252;SDS011;24785;52.372;20.672;2022-08-11T06:46:32;5.45;;;1.67;;
38252;SDS011;24785;52.372;20.672;2022-08-11T06:56:38;3.67;;;1.58;;
38252;SDS011;24785;52.372;20.672;2022-08-11T07:07:10;4.13;;;2.10;;
38252;SDS011;24785;52.372;20.672;2022-08-11T07:17:50;3.60;;;1.55;;
38252;SDS011;24785;52.372;20.672;2022-08-11T07:28:13;5.03;;;1.70;;
38252;SDS011;24785;52.372;20.672;2022-08-11T07:38:41;3.70;;;1.40;;
38252;SDS011;24785;52.372;20.672;2022-08-11T07:48:44;5.20;;;1.60;;
38252;SDS011;24785;52.372;20.672;2022-08-11T07:59:16;4.45;;;1.70;;
38252;SDS011;24785;52.372;20.672;2022-08-11T08:09:37;5.10;;;1.47;;
38252;SDS011;24785;52.372;20.672;2022-08-11T08:19:57;3.92;;;1.30;;
38252;SDS011;24785;52.372;20.672;2022-08-11T08:29:58;3.70;;;1.10;;
38252;SDS011;24785;52.372;20.672;2022-08-11T08:40:19;2.08;;;1.20;;
38252;SDS011;24785;52.372;20.672;2022-08-11T08:50:21;1.63;;;1.00;;
38252;SDS011;24785;52.372;20.672;2022-08-11T09:00:23;2.88;;;1.20;;
38252;SDS011;24785;52.372;20.672;2022-08-11T09:10:24;2.75;;;1.00;;
38252;SDS011;24785;52.372;20.672;2022-08-11T09:20:26;6.10;;;1.40;;
38252;SDS011;24785;52.372;20.672;2022-08-11T09:30:28;5.13;;;1.00;;
38252;SDS011;24785;52.372;20.672;2022-08-11T09:40:30;1.93;;;0.77;;
38252;SDS011;24785;52.372;20.672;2022-08-11T09:50:31;1.27;;;0.80;;
38252;SDS011;24785;52.372;20.672;2022-08-11T10:00:35;1.58;;;0.90;;
38252;SDS011;24785;52.372;20.672;2022-08-11T10:10:37;6.07;;;1.10;;
38252;SDS011;24785;52.372;20.672;2022-08-11T10:20:39;1.83;;;0.80;;
38252;SDS011;24785;52.372;20.672;2022-08-11T10:30:42;1.20;;;0.90;;
38252;SDS011;24785;52.372;20.672;2022-08-11T10:41:05;2.95;;;0.80;;
38252;SDS011;24785;52.372;20.672;2022-08-11T10:51:24;3.13;;;0.82;;
38252;SDS011;24785;52.372;20.672;2022-08-11T11:01:44;2.00;;;0.90;;
38252;SDS011;24785;52.372;20.672;2022-08-11T11:11:50;1.13;;;0.93;;
38252;SDS011;24785;52.372;20.672;2022-08-11T11:22:12;3.20;;;0.90;;
38252;SDS011;24785;52.372;20.672;2022-08-11T11:42:34;2.20;;;0.77;;
38252;SDS011;24785;52.372;20.672;2022-08-11T11:52:37;1.25;;;0.77;;
38252;SDS011;24785;52.372;20.672;2022-08-11T12:02:40;4.60;;;1.13;;
38252;SDS011;24785;52.372;20.672;2022-08-11T12:12:42;1.88;;;0.90;;
38252;SDS011;24785;52.372;20.672;2022-08-11T12:23:03;3.90;;;0.80;;
38252;SDS011;24785;52.372;20.672;2022-08-11T12:33:22;2.30;;;1.00;;
38252;SDS011;24785;52.372;20.672;2022-08-11T12:43:23;1.50;;;0.60;;
38252;SDS011;24785;52.372;20.672;2022-08-11T12:53:53;1.10;;;0.70;;
38252;SDS011;24785;52.372;20.672;2022-08-11T13:03:59;2.40;;;0.70;;
38252;SDS011;24785;52.372;20.672;2022-08-11T13:14:18;2.08;;;0.70;;
38252;SDS011;24785;52.372;20.672;2022-08-11T13:24:20;3.15;;;1.08;;
38252;SDS011;24785;52.372;20.672;2022-08-11T13:44:27;3.58;;;1.05;;
38252;SDS011;24785;52.372;20.672;2022-08-11T13:54:31;1.48;;;1.00;;
38252;SDS011;24785;52.372;20.672;2022-08-11T14:14:41;1.55;;;0.75;;
38252;SDS011;24785;52.372;20.672;2022-08-11T14:24:47;5.80;;;1.00;;
38252;SDS011;24785;52.372;20.672;2022-08-11T14:34:51;3.00;;;1.30;;
38252;SDS011;24785;52.372;20.672;2022-08-11T14:55:22;6.47;;;2.83;;
38252;SDS011;24785;52.372;20.672;2022-08-11T15:15:44;3.73;;;1.27;;
38252;SDS011;24785;52.372;20.672;2022-08-11T15:26:06;9.20;;;3.25;;
38252;SDS011;24785;52.372;20.672;2022-08-11T15:36:13;4.07;;;1.00;;
38252;SDS011;24785;52.372;20.672;2022-08-11T15:46:51;4.53;;;1.10;;
38252;SDS011;24785;52.372;20.672;2022-08-11T15:56:58;6.50;;;1.00;;
38252;SDS011;24785;52.372;20.672;2022-08-11T16:07:06;2.97;;;0.80;;
38252;SDS011;24785;52.372;20.672;2022-08-11T16:17:12;2.70;;;1.20;;
38252;SDS011;24785;52.372;20.672;2022-08-11T16:27:17;2.40;;;1.05;;
38252;SDS011;24785;52.372;20.672;2022-08-11T16:37:18;4.43;;;1.10;;
38252;SDS011;24785;52.372;20.672;2022-08-11T16:47:41;3.17;;;1.10;;
38252;SDS011;24785;52.372;20.672;2022-08-11T16:57:44;5.25;;;1.10;;
38252;SDS011;24785;52.372;20.672;2022-08-11T17:08:04;5.15;;;1.80;;
38252;SDS011;24785;52.372;20.672;2022-08-11T17:18:25;6.40;;;1.80;;
38252;SDS011;24785;52.372;20.672;2022-08-11T17:28:46;7.40;;;2.00;;
38252;SDS011;24785;52.372;20.672;2022-08-11T17:38:50;16.30;;;2.00;;
38252;SDS011;24785;52.372;20.672;2022-08-11T17:48:52;4.10;;;1.40;;
38252;SDS011;24785;52.372;20.672;2022-08-11T17:58:53;11.88;;;1.40;;
38252;SDS011;24785;52.372;20.672;2022-08-11T18:09:16;22.47;;;3.03;;
38252;SDS011;24785;52.372;20.672;2022-08-11T18:19:37;8.55;;;1.90;;
38252;SDS011;24785;52.372;20.672;2022-08-11T18:29:57;5.28;;;2.20;;
38252;SDS011;24785;52.372;20.672;2022-08-11T18:40:21;8.82;;;2.55;;
38252;SDS011;24785;52.372;20.672;2022-08-11T18:50:44;7.15;;;2.40;;
38252;SDS011;24785;52.372;20.672;2022-08-11T19:01:05;8.82;;;2.70;;
38252;SDS011;24785;52.372;20.672;2022-08-11T19:11:27;7.70;;;2.63;;
38252;SDS011;24785;52.372;20.672;2022-08-11T19:21:48;8.32;;;3.00;;
38252;SDS011;24785;52.372;20.672;2022-08-11T19:32:10;9.38;;;4.95;;
38252;SDS011;24785;52.372;20.672;2022-08-11T19:42:31;8.13;;;2.53;;
38252;SDS011;24785;52.372;20.672;2022-08-11T19:52:52;4.03;;;2.22;;
38252;SDS011;24785;52.372;20.672;2022-08-11T20:03:12;5.72;;;2.22;;
38252;SDS011;24785;52.372;20.672;2022-08-11T20:13:31;4.15;;;2.30;;
38252;SDS011;24785;52.372;20.672;2022-08-11T20:23:53;4.60;;;2.20;;
38252;SDS011;24785;52.372;20.672;2022-08-11T20:34:14;4.95;;;2.90;;
38252;SDS011;24785;52.372;20.672;2022-08-11T20:44:35;7.50;;;4.18;;
38252;SDS011;24785;52.372;20.672;2022-08-11T20:54:57;7.80;;;3.33;;
38252;SDS011;24785;52.372;20.672;2022-08-11T21:05:17;7.32;;;4.60;;
38252;SDS011;24785;52.372;20.672;2022-08-11T21:15:36;24.58;;;3.40;;
38252;SDS011;24785;52.372;20.672;2022-08-11T21:26:01;4.22;;;2.83;;
38252;SDS011;24785;52.372;20.672;2022-08-11T21:36:27;5.80;;;3.38;;
38252;SDS011;24785;52.372;20.672;2022-08-11T21:46:47;5.45;;;2.78;;
38252;SDS011;24785;52.372;20.672;2022-08-11T21:57:09;5.78;;;2.97;;
38252;SDS011;24785;52.372;20.672;2022-08-11T22:17:50;5.55;;;2.85;;
38252;SDS011;24785;52.372;20.672;2022-08-11T22:28:09;6.25;;;3.63;;
38252;SDS011;24785;52.372;20.672;2022-08-11T22:38:30;6.43;;;3.53;;
38252;SDS011;24785;52.372;20.672;2022-08-11T22:48:51;5.38;;;3.13;;
38252;SDS011;24785;52.372;20.672;2022-08-11T22:59:11;5.45;;;3.05;;
38252;SDS011;24785;52.372;20.672;2022-08-11T23:09:32;5.68;;;3.30;;
38252;SDS011;24785;52.372;20.672;2022-08-11T23:19:52;5.70;;;2.60;;
38252;SDS011;24785;52.372;20.672;2022-08-11T23:30:13;5.10;;;2.92;;
38252;SDS011;24785;52.372;20.672;2022-08-11T23:40:33;15.07;;;3.40;;
38252;SDS011;24785;52.372;20.672;2022-08-11T23:50:52;6.85;;;3.30;;
